AWG-1

METAR EHMA TAF EHLW
7 °C
°C
-
°C
30m
Wiek
04:25:24
LT
03:25
UTC
0 ft

1.000

2.000

3.000

4.000

5.000

VFR
<?= Yii::t('app', 'Wind direction') ?> <?= Yii::t('app', 'of'); ?>
350°
08:12
Wschód słońca
87%
Wilgotność
Siła wiatru
Zamknięte/Śnieg
Zasięg wzroku na RWY
Stan RWY
Widzialność pionowa
Min. widoczność
CAVOK
Trend
Korekta
Raport specjalny
1042 hPa
QNH
METAR EHMA 060255Z AUTO 35013KT 9999 NSC 07/05 Q1042
Niebo czyste
0 kt
0 kt
04:00
IFR
5 kt
05:00
IFR
5 kt
06:00
LIFR
5 kt
07:00
LIFR
5 kt
08:00
LIFR
5 kt
09:00
LIFR
5 kt
10:00
VFR
5 kt
10 km+
Widoczność
Brak
Sufit
13 kt
Wiatr
metar-taf.com/EHMA

Metar-Taf.com

Dekoder wizualny

My i strony trzecie śledzimy Twoje zachowanie internetowe na naszej stronie za pomocą plików cookie. Jeśli kontynuujesz, zakładamy, że zgadzasz się z naszymi polityka plików cookie.